Time;durP1;ratioP1;P1;durP2;ratioP2;P2;SDS_P1;SDS_P2;PMS_P1;PMS_P2;Temp;Humidity;BMP_temperature;BMP_pressure;BME280_temperature;BME280_humidity;BME280_pressure;Samples;Min_cycle;Max_cycle;Signal;HPM_P1;HPM_P2
2022/06/14 00:02:52;;;;;;;8.68;3.60;;;10.50;99.90;;;;;;5011331;28;20088;-73
2022/06/14 00:05:18;;;;;;;12.25;4.22;;;10.40;99.90;;;;;;5017296;28;20076;-73
2022/06/14 00:07:43;;;;;;;13.65;4.28;;;10.40;99.90;;;;;;5007379;28;20044;-73
2022/06/14 00:10:09;;;;;;;10.07;3.58;;;10.30;99.90;;;;;;4998379;28;20033;-73
2022/06/14 00:12:35;;;;;;;12.60;4.43;;;10.30;99.90;;;;;;5008738;28;20407;-73
2022/06/14 00:15:01;;;;;;;11.77;3.92;;;10.40;99.90;;;;;;5007101;28;20410;-74
2022/06/14 00:17:26;;;;;;;7.07;3.42;;;10.30;99.90;;;;;;5000081;28;20050;-73
2022/06/14 00:19:52;;;;;;;11.00;3.70;;;10.30;99.90;;;;;;5004618;28;20049;-73
2022/06/14 00:22:18;;;;;;;11.15;3.63;;;10.30;99.90;;;;;;5006781;28;20120;-73
2022/06/14 00:24:43;;;;;;;12.68;3.80;;;10.20;99.90;;;;;;4992009;28;20090;-73
2022/06/14 00:27:09;;;;;;;8.30;3.42;;;10.20;99.90;;;;;;5007209;28;20045;-74
2022/06/14 00:29:35;;;;;;;9.98;3.88;;;10.20;99.90;;;;;;4998139;28;20093;-73
2022/06/14 00:32:03;;;;;;;10.43;3.92;;;10.20;99.90;;;;;;5002385;28;20137;-73
2022/06/14 00:34:29;;;;;;;10.05;3.53;;;10.20;99.90;;;;;;5033846;28;20171;-73
2022/06/14 00:36:56;;;;;;;9.38;3.70;;;10.10;99.90;;;;;;5020389;28;20092;-73
2022/06/14 00:39:25;;;;;;;12.23;4.53;;;10.10;99.90;;;;;;4995925;28;20038;-74
2022/06/14 00:41:54;;;;;;;11.35;3.80;;;10.10;99.90;;;;;;5031248;28;20635;-73
2022/06/14 00:44:21;;;;;;;11.32;3.70;;;10.00;99.90;;;;;;5022290;28;20073;-74
2022/06/14 00:47:01;;;;;;;9.15;3.88;;;9.90;99.90;;;;;;5027348;28;20113;-73
2022/06/14 00:49:47;;;;;;;9.13;4.47;;;9.90;99.90;;;;;;5028503;28;20045;-73
2022/06/14 00:52:20;;;;;;;9.77;4.03;;;9.80;99.90;;;;;;5029924;28;20068;-73
2022/06/14 00:54:50;;;;;;;13.98;4.07;;;9.80;99.90;;;;;;5029016;28;20038;-73
2022/06/14 00:57:24;;;;;;;10.30;4.20;;;9.80;99.90;;;;;;5010626;28;20029;-74
2022/06/14 00:59:57;;;;;;;8.88;4.10;;;9.80;99.90;;;;;;5029510;28;20061;-74
2022/06/14 01:02:29;;;;;;;16.02;4.78;;;9.70;99.90;;;;;;5028698;28;20042;-74
2022/06/14 01:04:59;;;;;;;12.45;4.40;;;9.70;99.90;;;;;;5016256;28;20048;-73
2022/06/14 01:07:33;;;;;;;12.20;4.70;;;9.70;99.90;;;;;;5012282;28;20377;-74
2022/06/14 01:10:15;;;;;;;11.65;4.72;;;9.70;99.90;;;;;;5037755;28;20041;-74
2022/06/14 01:12:45;;;;;;;12.13;5.13;;;9.70;99.90;;;;;;5030952;28;20045;-74
2022/06/14 01:15:18;;;;;;;16.17;4.90;;;9.70;99.90;;;;;;5012357;28;20045;-74
2022/06/14 01:17:53;;;;;;;9.38;4.28;;;9.60;99.90;;;;;;5031917;28;20046;-74
2022/06/14 01:20:21;;;;;;;9.48;4.80;;;9.60;99.90;;;;;;5021205;28;20049;-73
2022/06/14 01:22:49;;;;;;;10.30;4.63;;;9.60;99.90;;;;;;5029533;28;20037;-74
2022/06/14 01:25:15;;;;;;;9.70;4.53;;;9.60;99.90;;;;;;5023754;28;20045;-73
2022/06/14 01:27:42;;;;;;;13.27;4.35;;;9.60;99.90;;;;;;5008841;28;20172;-74
2022/06/14 01:30:19;;;;;;;9.40;4.32;;;9.60;99.90;;;;;;5024938;28;20537;-74
2022/06/14 01:32:52;;;;;;;11.48;3.90;;;9.60;99.90;;;;;;5023902;28;20246;-74
2022/06/14 01:35:21;;;;;;;13.25;4.60;;;9.60;99.90;;;;;;5031842;28;20038;-73
2022/06/14 01:37:50;;;;;;;10.40;4.45;;;9.60;99.90;;;;;;5032881;28;20089;-74
2022/06/14 01:40:16;;;;;;;14.20;4.80;;;9.50;99.90;;;;;;5026465;28;20376;-74
2022/06/14 01:43:00;;;;;;;8.88;4.82;;;9.50;99.90;;;;;;5003765;28;20045;-73
2022/06/14 01:45:40;;;;;;;8.40;4.90;;;9.50;99.90;;;;;;5021971;28;20049;-73
2022/06/14 01:48:08;;;;;;;8.05;4.30;;;9.40;99.90;;;;;;5021190;28;20533;-74
2022/06/14 01:54:34;;;;;;;9.88;5.70;;;9.30;99.90;;;;;;5027998;28;20038;-74
2022/06/14 01:57:15;;;;;;;11.57;4.97;;;9.30;99.90;;;;;;5022868;28;20046;-74
2022/06/14 01:59:59;;;;;;;11.07;5.25;;;9.30;99.90;;;;;;5012248;28;20042;-73
2022/06/14 02:02:51;;;;;;;10.60;5.60;;;9.30;99.90;;;;;;5007245;28;20045;-73
2022/06/14 02:05:28;;;;;;;10.93;5.13;;;9.20;99.90;;;;;;5028802;28;20037;-73
2022/06/14 02:08:18;;;;;;;10.75;5.05;;;9.20;99.90;;;;;;5030681;28;20045;-74
2022/06/14 02:11:02;;;;;;;11.55;4.60;;;9.20;99.90;;;;;;5027982;28;20050;-74
2022/06/14 02:13:48;;;;;;;9.68;5.00;;;9.20;99.90;;;;;;5026570;28;20049;-74
2022/06/14 02:16:31;;;;;;;14.23;5.20;;;9.20;99.90;;;;;;5016192;28;20453;-74
2022/06/14 02:19:03;;;;;;;;;;;9.20;99.90;;;;;;5026662;28;20116;-74
2022/06/14 02:21:35;;;;;;;14.20;5.00;;;9.20;99.90;;;;;;5024908;28;19921;-74
2022/06/14 02:24:11;;;;;;;13.68;6.22;;;9.20;99.90;;;;;;5028965;28;20125;-74
2022/06/14 02:26:43;;;;;;;11.40;5.70;;;9.20;99.90;;;;;;5029936;28;20127;-74
2022/06/14 02:29:15;;;;;;;10.68;4.13;;;9.20;99.90;;;;;;5022409;28;20045;-74
2022/06/14 02:31:53;;;;;;;15.63;5.47;;;9.20;99.90;;;;;;5008491;28;20054;-74
2022/06/14 02:35:03;;;;;;;9.48;5.53;;;9.20;99.90;;;;;;5022104;28;20034;-74
2022/06/14 02:37:34;;;;;;;10.63;4.90;;;9.20;99.90;;;;;;5029871;28;20037;-74
2022/06/14 02:40:07;;;;;;;12.83;5.40;;;9.20;99.90;;;;;;5017998;28;20513;-73
2022/06/14 02:42:37;;;;;;;;;;;9.20;99.90;;;;;;5021925;28;20053;-73
2022/06/14 02:45:20;;;;;;;8.50;4.28;;;9.20;99.90;;;;;;5021783;28;19924;-74
2022/06/14 02:47:53;;;;;;;;;;;9.10;99.90;;;;;;5000548;28;20123;-74
2022/06/14 02:50:39;;;;;;;10.35;4.97;;;9.10;99.90;;;;;;5002142;28;19920;-74
2022/06/14 02:53:25;;;;;;;10.00;6.45;;;9.10;99.90;;;;;;5022315;28;20116;-73
2022/06/14 02:55:53;;;;;;;13.27;5.78;;;9.10;99.90;;;;;;5027872;28;20414;-74
2022/06/14 02:58:31;;;;;;;11.80;5.90;;;9.10;99.90;;;;;;5005226;28;20034;-74
2022/06/14 03:01:22;;;;;;;10.40;5.40;;;9.10;99.90;;;;;;5025352;28;20559;-73
2022/06/14 03:04:19;;;;;;;15.57;5.43;;;9.20;99.90;;;;;;5027067;28;20096;-73
2022/06/14 03:07:00;;;;;;;9.95;5.40;;;9.10;99.90;;;;;;5014434;28;20046;-74
2022/06/14 03:09:33;;;;;;;13.10;6.07;;;9.10;99.90;;;;;;5018559;28;20038;-74
2022/06/14 03:12:35;;;;;;;15.80;6.60;;;9.10;99.90;;;;;;5027029;28;20103;-74
2022/06/14 03:15:18;;;;;;;12.30;6.28;;;9.20;99.90;;;;;;5014091;28;20128;-74
2022/06/14 03:18:21;;;;;;;15.02;6.35;;;9.20;99.90;;;;;;5020640;28;20064;-73
2022/06/14 03:20:55;;;;;;;15.38;6.50;;;9.20;99.90;;;;;;5003783;28;20103;-74
2022/06/14 03:23:43;;;;;;;13.93;5.53;;;9.20;99.90;;;;;;5015273;28;20045;-74
2022/06/14 03:26:34;;;;;;;14.95;5.57;;;9.20;99.90;;;;;;5031823;28;20041;-74
2022/06/14 03:29:11;;;;;;;11.88;6.15;;;9.20;99.90;;;;;;5001612;28;20041;-74
2022/06/14 03:31:49;;;;;;;12.38;5.53;;;9.20;99.90;;;;;;5007476;28;20404;-74
2022/06/14 03:34:31;;;;;;;9.35;5.07;;;9.30;99.90;;;;;;5030664;28;20072;-74
2022/06/14 03:36:57;;;;;;;14.55;6.47;;;9.30;99.90;;;;;;5001058;28;20030;-74
2022/06/14 03:39:30;;;;;;;11.40;5.57;;;9.30;99.90;;;;;;5027263;28;20037;-74
2022/06/14 03:41:57;;;;;;;10.05;5.25;;;9.30;99.90;;;;;;5025339;28;20171;-74
2022/06/14 03:44:26;;;;;;;11.23;5.80;;;9.40;99.90;;;;;;5021513;28;20525;-74
2022/06/14 03:47:20;;;;;;;14.25;5.85;;;9.40;99.90;;;;;;5022579;28;20040;-74
2022/06/14 03:50:12;;;;;;;13.95;5.82;;;9.40;99.90;;;;;;5022887;28;20041;-74
2022/06/14 03:52:43;;;;;;;12.73;5.65;;;9.50;99.90;;;;;;5011181;28;20514;-74
2022/06/14 03:55:36;;;;;;;12.80;5.30;;;9.50;99.90;;;;;;5031015;28;20144;-74
2022/06/14 03:58:02;;;;;;;;;;;9.50;99.90;;;;;;5013408;28;20296;-73
2022/06/14 04:00:42;;;;;;;10.38;5.40;;;9.50;99.90;;;;;;5031567;28;19917;-74
2022/06/14 04:03:08;;;;;;;11.27;5.30;;;9.60;99.90;;;;;;5001878;28;20080;-74
2022/06/14 04:05:55;;;;;;;11.50;5.38;;;9.60;99.90;;;;;;5019443;28;20049;-74
2022/06/14 04:08:35;;;;;;;8.25;4.82;;;9.60;99.90;;;;;;5009670;28;20046;-74
2022/06/14 04:11:19;;;;;;;9.82;5.32;;;9.70;99.90;;;;;;5020335;28;20037;-73
2022/06/14 04:13:59;;;;;;;15.27;5.07;;;9.70;99.90;;;;;;5000952;28;20037;-73
2022/06/14 04:16:49;;;;;;;14.60;5.85;;;9.70;99.90;;;;;;5031402;28;20458;-74
2022/06/14 04:19:33;;;;;;;11.20;5.28;;;9.70;99.90;;;;;;5010924;28;20100;-74
2022/06/14 04:22:30;;;;;;;10.68;5.03;;;9.70;99.90;;;;;;5004311;28;20044;-74
2022/06/14 04:25:01;;;;;;;15.57;5.57;;;9.80;99.90;;;;;;5017101;28;20515;-74
2022/06/14 04:28:01;;;;;;;13.23;5.57;;;9.80;99.90;;;;;;5016002;28;20046;-73
2022/06/14 04:30:45;;;;;;;15.60;5.47;;;9.80;99.90;;;;;;5027620;28;20054;-74
2022/06/14 04:33:43;;;;;;;13.70;5.60;;;9.80;99.90;;;;;;5005497;28;20041;-73
2022/06/14 04:36:16;;;;;;;9.32;5.15;;;9.80;99.90;;;;;;5002268;28;20042;-73
2022/06/14 04:38:47;;;;;;;14.02;5.30;;;9.80;99.90;;;;;;5018929;28;20107;-73
2022/06/14 04:41:20;;;;;;;10.88;5.40;;;9.80;99.90;;;;;;5024844;28;20046;-74
2022/06/14 04:43:54;;;;;;;13.63;5.80;;;9.80;99.90;;;;;;5015928;28;20041;-73
2022/06/14 04:46:34;;;;;;;16.33;4.85;;;9.80;99.90;;;;;;5016154;28;20053;-73
2022/06/14 04:49:26;;;;;;;12.25;4.90;;;9.80;99.90;;;;;;5005985;28;20044;-73
2022/06/14 04:52:11;;;;;;;13.02;5.20;;;9.80;99.90;;;;;;5025833;28;20112;-73
2022/06/14 04:54:52;;;;;;;13.57;5.68;;;9.90;99.90;;;;;;4999212;28;20175;-73
2022/06/14 04:57:55;;;;;;;15.77;6.43;;;9.80;99.90;;;;;;5026020;28;20037;-73
2022/06/14 05:00:24;;;;;;;15.00;6.30;;;9.90;99.90;;;;;;5022258;28;20115;-74
2022/06/14 05:03:18;;;;;;;14.20;5.63;;;9.90;99.90;;;;;;5029819;28;20057;-73
2022/06/14 05:05:59;;;;;;;12.48;5.65;;;9.90;99.90;;;;;;5029023;28;20046;-73
2022/06/14 05:08:37;;;;;;;16.42;5.68;;;10.00;99.90;;;;;;5027956;28;20133;-74
2022/06/14 05:11:24;;;;;;;17.92;5.72;;;10.00;99.90;;;;;;5008788;28;20038;-73
2022/06/14 05:14:11;;;;;;;13.60;5.50;;;10.00;99.90;;;;;;5025972;28;20396;-74
2022/06/14 05:16:56;;;;;;;13.45;5.50;;;10.10;99.90;;;;;;5022175;28;20045;-73
2022/06/14 05:19:37;;;;;;;12.20;5.45;;;10.20;99.90;;;;;;5023853;28;20053;-73
2022/06/14 05:22:23;;;;;;;11.25;5.88;;;10.20;99.90;;;;;;5028175;28;20092;-73
2022/06/14 05:24:49;;;;;;;12.50;5.85;;;10.30;99.90;;;;;;5022866;28;20112;-73
2022/06/14 05:27:36;;;;;;;15.93;5.85;;;10.30;99.90;;;;;;5007638;28;20041;-73
2022/06/14 05:30:30;;;;;;;13.90;5.60;;;10.40;99.90;;;;;;5016511;28;20050;-73
2022/06/14 05:32:59;;;;;;;15.35;5.30;;;10.50;99.90;;;;;;5022267;28;20123;-73
2022/06/14 05:35:43;;;;;;;11.98;5.70;;;10.50;99.90;;;;;;5004398;28;20057;-73
2022/06/14 05:38:33;;;;;;;14.80;5.70;;;10.60;99.90;;;;;;5017035;28;20044;-73
2022/06/14 05:41:10;;;;;;;15.45;5.35;;;10.70;99.90;;;;;;5026464;28;20076;-73
2022/06/14 05:43:48;;;;;;;13.45;5.10;;;10.80;99.90;;;;;;5038198;28;20116;-74
2022/06/14 05:46:25;;;;;;;14.85;5.15;;;10.90;99.90;;;;;;5000227;28;20040;-74
2022/06/14 05:49:04;;;;;;;13.20;5.15;;;10.90;99.90;;;;;;5033036;28;20127;-73
2022/06/14 05:51:38;;;;;;;14.07;5.40;;;11.00;99.90;;;;;;5029160;28;20514;-73
2022/06/14 05:54:12;;;;;;;13.20;4.30;;;11.10;99.90;;;;;;5024269;28;20056;-73
2022/06/14 05:57:07;;;;;;;12.38;4.70;;;11.20;99.90;;;;;;5028537;28;20088;-73
2022/06/14 05:59:46;;;;;;;14.38;5.47;;;11.30;99.90;;;;;;5025811;28;20580;-74
2022/06/14 06:02:17;;;;;;;16.25;5.25;;;11.40;99.90;;;;;;5013479;28;20391;-73
2022/06/14 06:04:53;;;;;;;14.73;4.97;;;11.50;99.90;;;;;;5020829;28;20045;-74
2022/06/14 06:07:32;;;;;;;11.15;4.35;;;11.50;99.90;;;;;;5034972;28;20041;-74
2022/06/14 06:10:06;;;;;;;8.45;4.07;;;11.60;99.90;;;;;;5014730;28;20042;-73
2022/06/14 06:12:47;;;;;;;11.90;4.35;;;11.70;99.90;;;;;;5018261;28;20060;-73
2022/06/14 06:15:13;;;;;;;11.73;4.30;;;11.80;99.90;;;;;;5023470;28;20135;-74
2022/06/14 06:17:51;;;;;;;12.25;4.15;;;11.90;99.90;;;;;;5025973;28;20800;-74
2022/06/14 06:20:28;;;;;;;13.27;4.50;;;12.00;99.90;;;;;;5019407;28;20033;-73
2022/06/14 06:23:20;;;;;;;11.85;3.97;;;12.00;99.90;;;;;;5021601;28;20513;-73
2022/06/14 06:25:50;;;;;;;9.77;4.50;;;12.10;99.90;;;;;;5014945;28;20041;-73
2022/06/14 06:28:35;;;;;;;14.15;4.20;;;12.20;99.90;;;;;;5028803;28;20041;-73
2022/06/14 06:31:06;;;;;;;11.45;4.13;;;12.30;99.90;;;;;;5022343;28;20042;-73
2022/06/14 06:33:40;;;;;;;16.05;4.85;;;12.40;99.90;;;;;;5022076;28;20045;-73
2022/06/14 06:36:15;;;;;;;13.45;3.83;;;12.40;99.90;;;;;;5017911;28;20491;-73
2022/06/14 06:38:49;;;;;;;15.27;4.07;;;12.60;99.90;;;;;;5017486;28;20525;-74
2022/06/14 06:44:16;;;;;;;13.60;4.37;;;12.80;99.90;;;;;;5022931;28;20053;-76
2022/06/14 06:46:53;;;;;;;8.20;4.20;;;12.90;99.90;;;;;;5029816;28;20488;-75
2022/06/14 06:49:30;;;;;;;13.23;4.10;;;13.00;99.90;;;;;;5028186;28;20044;-74
2022/06/14 06:52:01;;;;;;;11.88;3.95;;;13.10;99.90;;;;;;5013912;28;20040;-74
2022/06/14 06:54:46;;;;;;;11.82;3.70;;;13.30;99.90;;;;;;5018900;28;20040;-75
2022/06/14 06:57:17;;;;;;;11.40;3.53;;;13.40;99.90;;;;;;5027499;28;20289;-75
2022/06/14 06:59:47;;;;;;;10.13;4.07;;;13.50;99.90;;;;;;5041678;28;20083;-74
2022/06/14 07:02:43;;;;;;;13.38;3.63;;;13.70;99.90;;;;;;5027283;28;20037;-75
2022/06/14 07:05:14;;;;;;;8.55;3.55;;;13.80;99.90;;;;;;5009818;28;20049;-74
2022/06/14 07:08:11;;;;;;;12.65;3.67;;;13.90;99.90;;;;;;5002955;28;20053;-75
2022/06/14 07:10:49;;;;;;;11.13;3.85;;;14.10;99.90;;;;;;5026671;28;20503;-75
2022/06/14 07:13:18;;;;;;;8.90;3.33;;;14.20;99.90;;;;;;5030506;28;20380;-75
2022/06/14 07:16:10;;;;;;;7.53;2.75;;;14.40;99.90;;;;;;5013734;28;20075;-75
2022/06/14 07:18:45;;;;;;;8.80;3.22;;;14.50;99.90;;;;;;5007585;28;20150;-74
2022/06/14 07:21:25;;;;;;;6.70;2.53;;;14.50;99.90;;;;;;5031988;28;20079;-75
2022/06/14 07:24:03;;;;;;;8.73;2.80;;;14.40;99.90;;;;;;5032350;28;20037;-75
2022/06/14 07:26:48;;;;;;;7.50;2.80;;;14.50;99.90;;;;;;5025844;28;20044;-77
2022/06/14 07:29:56;;;;;;;6.63;2.70;;;14.80;99.90;;;;;;5025720;28;20038;-76
2022/06/14 07:32:38;;;;;;;6.13;2.67;;;14.90;99.90;;;;;;5014638;28;20037;-72
2022/06/14 07:35:04;;;;;;;7.60;2.97;;;15.00;99.90;;;;;;5023815;28;20037;-85
2022/06/14 07:37:41;;;;;;;10.75;3.47;;;15.00;99.90;;;;;;5027854;28;20045;-83
2022/06/14 07:40:35;;;;;;;30.53;12.70;;;15.10;99.90;;;;;;5017026;28;20045;-81
2022/06/14 07:43:11;;;;;;;6.47;2.75;;;15.20;99.90;;;;;;5027224;28;20046;-79
2022/06/14 07:45:42;;;;;;;5.63;2.50;;;15.40;99.90;;;;;;5017119;28;20040;-78
2022/06/14 07:48:26;;;;;;;5.82;2.47;;;15.40;99.90;;;;;;5011076;28;20076;-76
2022/06/14 07:51:26;;;;;;;8.23;3.00;;;15.40;99.90;;;;;;5043835;28;20071;-74
2022/06/14 07:53:58;;;;;;;6.82;2.35;;;15.50;99.90;;;;;;5028259;28;20116;-73
2022/06/14 07:56:30;;;;;;;9.48;2.70;;;15.70;99.90;;;;;;5027979;28;20049;-74
2022/06/14 07:59:08;;;;;;;7.38;2.60;;;16.00;99.90;;;;;;5015795;28;20033;-74
2022/06/14 08:01:59;;;;;;;8.98;2.75;;;16.10;99.90;;;;;;5025683;28;20099;-73
2022/06/14 08:04:35;;;;;;;10.07;2.60;;;16.10;99.90;;;;;;5012787;28;20044;-71
2022/06/14 08:07:22;;;;;;;3.05;1.77;;;15.90;99.90;;;;;;5027704;28;20550;-72
2022/06/14 08:09:52;;;;;;;5.78;2.60;;;15.80;99.90;;;;;;4995771;28;20057;-73
2022/06/14 08:12:33;;;;;;;5.95;1.98;;;15.70;99.90;;;;;;5030421;28;20065;-73
2022/06/14 08:15:05;;;;;;;8.15;2.30;;;15.90;99.90;;;;;;5031692;28;20036;-74
2022/06/14 08:17:47;;;;;;;6.82;2.42;;;16.10;99.90;;;;;;5030692;28;20037;-73
2022/06/14 08:20:26;;;;;;;9.73;2.53;;;16.30;99.90;;;;;;5029370;28;20084;-74
2022/06/14 08:22:57;;;;;;;5.00;2.38;;;16.30;99.90;;;;;;5011021;28;20048;-74
2022/06/14 08:25:32;;;;;;;6.50;2.20;;;16.40;99.90;;;;;;5030917;28;20866;-74
2022/06/14 08:28:21;;;;;;;5.18;1.80;;;16.30;99.90;;;;;;5029441;28;20048;-75
2022/06/14 08:31:10;;;;;;;6.65;2.10;;;16.20;99.90;;;;;;5030483;28;20056;-75
2022/06/14 08:33:44;;;;;;;5.07;2.25;;;16.20;99.90;;;;;;5010989;28;20040;-75
2022/06/14 08:36:14;;;;;;;5.93;2.22;;;16.30;99.90;;;;;;5007077;28;20438;-74
2022/06/14 08:39:00;;;;;;;6.05;2.50;;;16.40;99.90;;;;;;5016757;28;20116;-74
2022/06/14 08:41:59;;;;;;;5.47;2.15;;;16.40;99.90;;;;;;5027142;28;20046;-74
2022/06/14 08:44:32;;;;;;;6.22;2.65;;;16.40;99.90;;;;;;5032907;28;20273;-75
2022/06/14 08:47:29;;;;;;;4.35;1.90;;;16.40;99.90;;;;;;5027673;28;20044;-75
2022/06/14 08:50:08;;;;;;;4.45;2.30;;;16.60;99.90;;;;;;5011940;28;20091;-75
2022/06/14 08:52:57;;;;;;;6.65;2.50;;;16.90;99.90;;;;;;5026292;28;20090;-75
2022/06/14 08:55:53;;;;;;;9.05;2.20;;;16.90;99.90;;;;;;5029967;28;20041;-74
2022/06/14 08:58:41;;;;;;;4.70;1.98;;;16.80;99.90;;;;;;5029845;28;20036;-77
2022/06/14 09:01:34;;;;;;;4.78;2.22;;;16.60;99.90;;;;;;5031376;28;20047;-78
2022/06/14 09:04:06;;;;;;;9.13;5.18;;;16.60;99.90;;;;;;5045555;28;20038;-77
2022/06/14 09:07:10;;;;;;;6.25;1.88;;;16.80;99.90;;;;;;5013258;28;20041;-81
2022/06/14 09:10:05;;;;;;;4.43;2.30;;;17.10;99.90;;;;;;5034103;28;20037;-77
2022/06/14 09:13:03;;;;;;;5.75;2.00;;;17.40;99.90;;;;;;5027372;28;20730;-75
2022/06/14 09:15:54;;;;;;;8.07;3.42;;;17.60;99.90;;;;;;5011559;28;20114;-78
2022/06/14 09:18:54;;;;;;;7.95;4.57;;;17.80;99.50;;;;;;5027972;28;20160;-74
2022/06/14 09:22:05;;;;;;;34.13;20.27;;;17.70;99.10;;;;;;5019772;28;20087;-74
2022/06/14 09:24:39;;;;;;;6.47;2.53;;;17.60;99.90;;;;;;5031770;28;20038;-74
2022/06/14 09:27:24;;;;;;;7.68;2.00;;;17.40;99.00;;;;;;5018437;28;20040;-75
2022/06/14 09:30:08;;;;;;;4.88;1.80;;;17.20;99.90;;;;;;5019486;28;20047;-75
2022/06/14 09:33:09;;;;;;;5.90;1.75;;;17.20;99.90;;;;;;5032747;28;20660;-75
2022/06/14 09:36:13;;;;;;;8.05;2.05;;;17.10;99.00;;;;;;5047759;28;20553;-76
2022/06/14 09:38:45;;;;;;;3.25;1.58;;;17.10;99.90;;;;;;5029939;28;20546;-75
2022/06/14 09:41:41;;;;;;;5.05;2.15;;;17.10;99.90;;;;;;5029726;28;20029;-76
2022/06/14 09:44:31;;;;;;;3.60;2.05;;;17.40;99.90;;;;;;5015522;28;20048;-76
2022/06/14 09:46:57;;;;;;;9.65;1.80;;;17.70;99.20;;;;;;5031416;28;20051;-76
2022/06/14 09:49:37;;;;;;;6.10;2.00;;;18.10;99.90;;;;;;5013779;28;20616;-76
2022/06/14 09:52:41;;;;;;;5.07;1.83;;;18.40;99.90;;;;;;5015182;28;20042;-76
2022/06/14 09:55:38;;;;;;;5.13;1.88;;;18.80;98.80;;;;;;5033403;28;20033;-76
2022/06/14 09:58:16;;;;;;;3.88;1.95;;;19.10;98.00;;;;;;5031845;28;20552;-75
2022/06/14 10:00:54;;;;;;;3.05;1.70;;;19.30;98.40;;;;;;5033310;28;20067;-76
2022/06/14 10:03:38;;;;;;;3.95;1.77;;;19.40;98.20;;;;;;5015122;28;20033;-75
2022/06/14 10:06:32;;;;;;;4.75;1.90;;;19.30;97.20;;;;;;5031697;28;20041;-75
2022/06/14 10:09:17;;;;;;;4.65;1.80;;;19.30;98.10;;;;;;5029232;28;20033;-75
2022/06/14 10:12:02;;;;;;;3.42;1.48;;;19.10;97.20;;;;;;5026380;28;20778;-76
2022/06/14 10:14:54;;;;;;;5.45;2.10;;;18.90;97.60;;;;;;5029489;28;20041;-75
2022/06/14 10:17:44;;;;;;;7.28;1.95;;;18.70;97.70;;;;;;5028826;28;20142;-75
2022/06/14 10:20:55;;;;;;;4.45;1.52;;;18.50;97.80;;;;;;5034165;28;20047;-76
2022/06/14 10:23:50;;;;;;;6.80;2.30;;;18.40;98.10;;;;;;5006882;28;20064;-75
2022/06/14 10:29:32;;;;;;;6.40;1.90;;;18.50;98.40;;;;;;5037501;28;20082;-75
2022/06/14 10:32:19;;;;;;;3.80;1.58;;;18.70;97.70;;;;;;5029758;28;20526;-75
2022/06/14 10:35:15;;;;;;;6.53;2.15;;;19.00;96.00;;;;;;5034872;28;20563;-76
2022/06/14 10:37:56;;;;;;;5.90;1.80;;;19.20;96.60;;;;;;5030123;28;20372;-75
2022/06/14 10:40:48;;;;;;;4.82;1.75;;;19.40;96.70;;;;;;5046410;28;20075;-75
2022/06/14 10:43:41;;;;;;;4.60;1.58;;;19.60;97.70;;;;;;5007554;28;20128;-75
2022/06/14 10:46:21;;;;;;;6.07;2.00;;;19.90;97.70;;;;;;5038128;28;20099;-74
2022/06/14 10:49:06;;;;;;;3.42;1.80;;;20.10;95.60;;;;;;5027953;28;20064;-74
2022/06/14 10:51:55;;;;;;;5.03;1.80;;;20.30;95.20;;;;;;5020017;28;20038;-74
2022/06/14 10:54:29;;;;;;;4.75;1.95;;;20.40;95.70;;;;;;5033391;28;20029;-74
2022/06/14 10:57:08;;;;;;;3.65;1.63;;;20.30;95.90;;;;;;5028110;28;20049;-74
2022/06/14 11:00:00;;;;;;;5.18;1.70;;;20.20;95.30;;;;;;5013553;28;20533;-74
2022/06/14 11:02:46;;;;;;;2.83;1.48;;;19.90;95.20;;;;;;5010537;28;20504;-74
2022/06/14 11:05:46;;;;;;;3.80;1.63;;;19.60;95.10;;;;;;5019974;28;20045;-74
2022/06/14 11:08:23;;;;;;;3.80;1.55;;;19.50;95.10;;;;;;5001521;28;20063;-73
2022/06/14 11:11:13;;;;;;;6.07;2.15;;;19.40;95.80;;;;;;5009730;28;20081;-74
2022/06/14 11:14:04;;;;;;;4.15;1.50;;;19.30;95.80;;;;;;5009131;28;20044;-74
2022/06/14 11:16:30;;;;;;;3.40;1.75;;;19.20;94.70;;;;;;5025113;28;20048;-74
2022/06/14 11:19:32;;;;;;;3.33;1.70;;;19.10;95.60;;;;;;5012584;28;20041;-74
2022/06/14 11:22:07;;;;;;;4.93;1.63;;;19.10;95.50;;;;;;5035171;28;20038;-75
2022/06/14 11:24:56;;;;;;;3.90;1.95;;;19.00;95.20;;;;;;5011079;28;20507;-74
2022/06/14 11:27:34;;;;;;;5.90;2.15;;;18.90;95.40;;;;;;5009840;28;20406;-74
2022/06/14 11:30:32;;;;;;;4.50;1.73;;;18.80;95.20;;;;;;5035067;28;20045;-74
2022/06/14 11:33:09;;;;;;;4.35;1.75;;;18.80;96.50;;;;;;5028914;28;20111;-74
2022/06/14 11:35:35;;;;;;;4.75;1.67;;;18.70;96.00;;;;;;5058945;28;20045;-73
2022/06/14 11:38:23;;;;;;;6.28;1.92;;;18.80;95.90;;;;;;5030579;28;20077;-74
2022/06/14 11:40:58;;;;;;;5.90;1.98;;;19.00;96.40;;;;;;5008513;28;20048;-74
2022/06/14 11:43:46;;;;;;;6.53;2.67;;;19.40;96.50;;;;;;5012203;28;20041;-75
2022/06/14 11:46:36;;;;;;;3.80;1.60;;;19.70;95.60;;;;;;5037581;28;20073;-74
2022/06/14 11:49:24;;;;;;;8.30;2.17;;;20.20;95.80;;;;;;4999734;28;20037;-75
2022/06/14 11:51:55;;;;;;;5.70;1.60;;;20.60;96.30;;;;;;5017086;28;20084;-75
2022/06/14 11:54:26;;;;;;;3.92;1.60;;;21.10;96.50;;;;;;5030699;28;20068;-74
2022/06/14 11:57:07;;;;;;;4.35;1.90;;;21.20;93.90;;;;;;5011837;28;20038;-73
2022/06/14 11:59:53;;;;;;;2.92;1.40;;;21.10;93.70;;;;;;5019781;28;20546;-74
2022/06/14 12:02:37;;;;;;;4.22;1.98;;;20.90;93.10;;;;;;5009076;28;20080;-73
2022/06/14 12:05:21;;;;;;;4.57;1.77;;;20.80;93.70;;;;;;5017865;28;20033;-74
2022/06/14 12:08:15;;;;;;;3.88;1.65;;;20.50;93.00;;;;;;5010563;28;20077;-73
2022/06/14 12:11:07;;;;;;;3.47;1.67;;;20.30;94.00;;;;;;5008854;28;20506;-73
2022/06/14 12:14:00;;;;;;;3.83;1.67;;;20.10;93.00;;;;;;5043636;28;20125;-74
2022/06/14 12:16:39;;;;;;;3.40;1.67;;;19.90;93.00;;;;;;5005797;28;20033;-74
2022/06/14 12:19:21;;;;;;;2.58;1.60;;;19.80;94.10;;;;;;5022785;28;20522;-74
2022/06/14 12:22:26;;;;;;;4.60;1.65;;;19.80;94.20;;;;;;5026465;28;20499;-74
2022/06/14 12:27:35;;;;;;;11.23;2.17;;;20.40;94.80;;;;;;5021741;28;20053;-72
2022/06/14 12:30:05;;;;;;;3.70;1.77;;;20.80;94.60;;;;;;5021620;28;20046;-72
2022/06/14 12:32:53;;;;;;;4.57;1.95;;;21.10;94.60;;;;;;5021204;28;20042;-72
2022/06/14 12:35:26;;;;;;;4.43;1.50;;;21.40;93.10;;;;;;5018611;28;20048;-73
2022/06/14 12:38:20;;;;;;;4.05;1.80;;;21.70;93.60;;;;;;5029555;28;20132;-72
2022/06/14 12:41:17;;;;;;;3.83;1.52;;;21.70;91.20;;;;;;5016662;28;20088;-72
2022/06/14 12:44:08;;;;;;;2.17;1.40;;;21.50;90.90;;;;;;5016681;28;20051;-72
2022/06/14 12:46:39;;;;;;;3.78;1.67;;;21.30;91.60;;;;;;4995225;28;20077;-72
2022/06/14 12:49:23;;;;;;;4.22;1.63;;;21.00;91.90;;;;;;5028438;28;20060;-72
2022/06/14 12:52:19;;;;;;;1.98;1.50;;;20.90;92.90;;;;;;5022219;28;20063;-72
2022/06/14 12:54:57;;;;;;;4.15;1.40;;;21.20;91.80;;;;;;5018538;28;21429;-72
2022/06/14 12:57:44;;;;;;;2.17;1.30;;;21.50;92.60;;;;;;5014556;28;20564;-72
2022/06/14 13:00:41;;;;;;;4.03;1.50;;;21.80;92.00;;;;;;5013976;28;20084;-72
2022/06/14 13:04:14;;;;;;;7.15;2.10;;;21.70;90.90;;;;;;5015743;28;20072;-73
2022/06/14 13:06:53;;;;;;;4.35;1.60;;;21.70;91.40;;;;;;4956642;28;20057;-72
2022/06/14 13:09:38;;;;;;;5.18;1.92;;;21.50;91.40;;;;;;5018958;28;20049;-72
2022/06/14 13:12:14;;;;;;;2.17;1.20;;;21.50;90.70;;;;;;5026237;28;20034;-72
2022/06/14 13:15:07;;;;;;;3.47;1.08;;;21.30;90.70;;;;;;5019230;28;20037;-72
2022/06/14 13:17:58;;;;;;;3.90;1.70;;;21.10;90.50;;;;;;5018783;28;20143;-72
2022/06/14 13:20:29;;;;;;;5.18;1.30;;;21.00;91.60;;;;;;5024727;28;20103;-72
2022/06/14 13:23:07;;;;;;;5.05;1.80;;;20.90;91.50;;;;;;5033981;28;20386;-73
2022/06/14 13:25:45;;;;;;;5.50;1.70;;;20.90;91.80;;;;;;5050522;28;20075;-73
2022/06/14 13:28:28;;;;;;;7.93;1.80;;;20.80;90.40;;;;;;5043404;28;20041;-72
2022/06/14 13:31:12;;;;;;;7.97;1.70;;;20.50;90.00;;;;;;5029737;28;20052;-72
2022/06/14 13:34:03;;;;;;;3.97;1.55;;;20.50;91.00;;;;;;5034545;28;20053;-72
2022/06/14 13:36:58;;;;;;;3.15;1.30;;;20.40;91.00;;;;;;5035736;28;20425;-72
2022/06/14 13:40:25;;;;;;;6.40;1.75;;;20.40;91.80;;;;;;4998123;28;20056;-73
2022/06/14 13:42:56;;;;;;;4.63;1.80;;;20.80;92.20;;;;;;4977277;28;20332;-72
2022/06/14 13:46:10;;;;;;;4.03;1.50;;;21.10;92.10;;;;;;5035396;28;20135;-72
2022/06/14 13:48:41;;;;;;;2.80;1.27;;;21.50;91.50;;;;;;5021875;28;20053;-72
2022/06/14 13:51:19;;;;;;;6.18;1.45;;;21.80;91.90;;;;;;5015746;28;20402;-72
2022/06/14 13:53:55;;;;;;;2.58;1.50;;;22.00;91.30;;;;;;5035952;28;20095;-73
2022/06/14 13:56:26;;;;;;;3.42;1.48;;;22.30;91.90;;;;;;5037696;28;20055;-72
2022/06/14 13:59:18;;;;;;;3.40;1.50;;;22.50;91.20;;;;;;5033932;28;20041;-72
2022/06/14 14:01:57;;;;;;;1.90;1.35;;;22.80;90.50;;;;;;5033910;28;20477;-72
2022/06/14 14:04:42;;;;;;;3.65;1.55;;;22.90;91.10;;;;;;5016235;28;20072;-72
2022/06/14 14:07:32;;;;;;;3.17;1.35;;;22.90;90.70;;;;;;5033850;28;20044;-73
2022/06/14 14:10:04;;;;;;;3.58;1.50;;;22.80;89.70;;;;;;5033884;28;20123;-72
2022/06/14 14:12:46;;;;;;;5.53;1.30;;;22.50;89.10;;;;;;5017465;28;20041;-72